Terminal Aerodrome Forecast
Issued by NWS

Home | Current Version | Previous Version | Text Only | Print | Product List | Glossary On
Versions: 1 2 3 4 5 6 7 8 9 10 11 12 13 14 15 16 17
637
FTUS43 KJKL 231201 AAA
TAFSME
TAF AMD
KSME 231201Z 2312/2412 00000KT 5SM BR SCT005 SCT060
     FM231400 08002KT P6SM SCT015 SCT070
     FM231800 26003KT P6SM VCTS SCT040CB SCT080
     FM232300 33002KT P6SM FEW035 SCT120
     FM240600 VRB02KT 3SM BR FEW030 SCT150=

USA.gov is the U.S. government's official web portal to all federal, state and local government web resources and services.